sensor_id;sensor_type;location;lat;lon;timestamp;pressure;altitude;pressure_sealevel;temperature;humidity
43820;BME280;67762;52.476;6.046;2023-03-01T01:09:24;103193.34;;;-4.76;74.33
43820;BME280;67762;52.476;6.046;2023-03-01T01:11:50;103188.16;;;-4.78;74.39
43820;BME280;67762;52.476;6.046;2023-03-01T01:14:17;103187.25;;;-4.77;74.50
43820;BME280;67762;52.476;6.046;2023-03-01T01:16:43;103193.31;;;-4.73;74.87
43820;BME280;67762;52.476;6.046;2023-03-01T01:19:10;103190.69;;;-4.70;74.84
43820;BME280;67762;52.476;6.046;2023-03-01T01:21:36;103182.88;;;-4.72;74.80
43820;BME280;67762;52.476;6.046;2023-03-01T01:24:04;103188.16;;;-4.82;74.58
43820;BME280;67762;52.476;6.046;2023-03-01T01:26:33;103183.88;;;-4.91;74.66
43820;BME280;67762;52.476;6.046;2023-03-01T01:29:00;103184.75;;;-4.90;74.98
43820;BME280;67762;52.476;6.046;2023-03-01T01:31:27;103189.06;;;-4.86;74.86
43820;BME280;67762;52.476;6.046;2023-03-01T01:33:54;103185.59;;;-4.84;74.95
43820;BME280;67762;52.476;6.046;2023-03-01T01:36:20;103176.88;;;-4.81;74.92
43820;BME280;67762;52.476;6.046;2023-03-01T01:38:46;103178.59;;;-4.79;75.16
43820;BME280;67762;52.476;6.046;2023-03-01T01:41:14;103175.16;;;-4.84;75.14
43820;BME280;67762;52.476;6.046;2023-03-01T01:44:32;103168.25;;;-4.89;75.25
43820;BME280;67762;52.476;6.046;2023-03-01T01:46:35;103161.34;;;-4.92;74.96
43820;BME280;67762;52.476;6.046;2023-03-01T01:49:06;103171.72;;;-4.90;75.17
43820;BME280;67762;52.476;6.046;2023-03-01T01:51:37;103163.03;;;-4.86;75.36
43820;BME280;67762;52.476;6.046;2023-03-01T01:54:12;103163.00;;;-4.83;75.33
43820;BME280;67762;52.476;6.046;2023-03-01T01:56:42;103156.03;;;-4.80;75.31
43820;BME280;67762;52.476;6.046;2023-03-01T01:59:09;103157.78;;;-4.79;75.15
43820;BME280;67762;52.476;6.046;2023-03-01T02:01:35;103149.09;;;-4.78;75.50
43820;BME280;67762;52.476;6.046;2023-03-01T02:04:01;103160.34;;;-4.77;75.18
43820;BME280;67762;52.476;6.046;2023-03-01T02:09:52;103146.50;;;-4.81;75.29
43820;BME280;67762;52.476;6.046;2023-03-01T02:12:23;103154.31;;;-4.78;75.29
43820;BME280;67762;52.476;6.046;2023-03-01T02:14:50;103152.50;;;-4.74;75.23
43820;BME280;67762;52.476;6.046;2023-03-01T02:17:16;103144.69;;;-4.71;75.34
43820;BME280;67762;52.476;6.046;2023-03-01T02:22:33;103135.97;;;-4.68;75.61
43820;BME280;67762;52.476;6.046;2023-03-01T02:25:19;103140.31;;;-4.69;75.55
43820;BME280;67762;52.476;6.046;2023-03-01T02:30:13;103135.97;;;-4.65;75.58
43820;BME280;67762;52.476;6.046;2023-03-01T02:32:42;103140.28;;;-4.63;75.76
43820;BME280;67762;52.476;6.046;2023-03-01T02:35:10;103138.59;;;-4.67;75.92
43820;BME280;67762;52.476;6.046;2023-03-01T02:37:37;103145.53;;;-4.69;75.60
43820;BME280;67762;52.476;6.046;2023-03-01T02:40:08;103135.13;;;-4.70;76.06
43820;BME280;67762;52.476;6.046;2023-03-01T02:42:47;103140.38;;;-4.74;75.96
43820;BME280;67762;52.476;6.046;2023-03-01T02:45:15;103138.69;;;-4.81;75.94
43820;BME280;67762;52.476;6.046;2023-03-01T02:47:40;103133.56;;;-4.93;75.77
43820;BME280;67762;52.476;6.046;2023-03-01T02:55:27;103117.06;;;-4.89;75.90
43820;BME280;67762;52.476;6.046;2023-03-01T02:57:54;103109.16;;;-4.83;76.26
43820;BME280;67762;52.476;6.046;2023-03-01T03:00:24;103105.72;;;-4.85;76.08
43820;BME280;67762;52.476;6.046;2023-03-01T03:02:53;103107.44;;;-4.85;76.47
43820;BME280;67762;52.476;6.046;2023-03-01T03:05:28;103105.75;;;-4.88;76.18
43820;BME280;67762;52.476;6.046;2023-03-01T03:07:57;103118.75;;;-4.88;76.20
43820;BME280;67762;52.476;6.046;2023-03-01T03:10:33;103112.72;;;-4.90;76.57
43820;BME280;67762;52.476;6.046;2023-03-01T03:13:07;103110.97;;;-4.94;76.44
43820;BME280;67762;52.476;6.046;2023-03-01T03:15:33;103104.09;;;-5.02;76.80
43820;BME280;67762;52.476;6.046;2023-03-01T03:18:05;103098.09;;;-5.12;76.83
43820;BME280;67762;52.476;6.046;2023-03-01T03:20:32;103109.38;;;-5.11;76.80
43820;BME280;67762;52.476;6.046;2023-03-01T03:22:58;103089.31;;;-4.99;76.86
43820;BME280;67762;52.476;6.046;2023-03-01T03:25:25;103086.66;;;-4.88;77.23
43820;BME280;67762;52.476;6.046;2023-03-01T03:27:52;103094.47;;;-4.90;76.98
43820;BME280;67762;52.476;6.046;2023-03-01T03:30:29;103091.84;;;-4.88;77.22
43820;BME280;67762;52.476;6.046;2023-03-01T03:32:56;103084.88;;;-4.82;76.89
43820;BME280;67762;52.476;6.046;2023-03-01T03:35:28;103089.19;;;-4.79;77.31
43820;BME280;67762;52.476;6.046;2023-03-01T03:37:57;103084.03;;;-4.87;77.24
43820;BME280;67762;52.476;6.046;2023-03-01T03:40:36;103082.38;;;-4.95;77.40
43820;BME280;67762;52.476;6.046;2023-03-01T03:43:07;103090.19;;;-4.95;77.27
43820;BME280;67762;52.476;6.046;2023-03-01T03:45:34;103087.56;;;-4.95;77.16
43820;BME280;67762;52.476;6.046;2023-03-01T03:48:02;103085.81;;;-4.92;76.98
43820;BME280;67762;52.476;6.046;2023-03-01T03:50:29;103087.56;;;-4.97;77.47
43820;BME280;67762;52.476;6.046;2023-03-01T03:52:54;103093.75;;;-5.08;77.25
43820;BME280;67762;52.476;6.046;2023-03-01T03:55:20;103100.75;;;-5.19;77.17
43820;BME280;67762;52.476;6.046;2023-03-01T03:57:47;103093.81;;;-5.20;77.28
43820;BME280;67762;52.476;6.046;2023-03-01T04:00:21;103087.75;;;-5.22;77.28
43820;BME280;67762;52.476;6.046;2023-03-01T04:02:48;103093.84;;;-5.26;77.46
43820;BME280;67762;52.476;6.046;2023-03-01T04:05:15;103099.06;;;-5.29;77.61
43820;BME280;67762;52.476;6.046;2023-03-01T04:07:42;103090.47;;;-5.39;77.57
43820;BME280;67762;52.476;6.046;2023-03-01T04:10:10;103092.22;;;-5.46;77.61
43820;BME280;67762;52.476;6.046;2023-03-01T04:12:36;103093.94;;;-5.43;77.85
43820;BME280;67762;52.476;6.046;2023-03-01T04:15:03;103095.63;;;-5.38;77.73
43820;BME280;67762;52.476;6.046;2023-03-01T04:17:47;103100.00;;;-5.44;77.55
43820;BME280;67762;52.476;6.046;2023-03-01T04:20:13;103099.16;;;-5.49;77.57
43820;BME280;67762;52.476;6.046;2023-03-01T04:22:43;103098.34;;;-5.53;77.87
43820;BME280;67762;52.476;6.046;2023-03-01T04:25:12;103096.59;;;-5.57;77.85
43820;BME280;67762;52.476;6.046;2023-03-01T04:27:40;103100.94;;;-5.57;77.68
43820;BME280;67762;52.476;6.046;2023-03-01T04:30:07;103105.28;;;-5.56;78.13
43820;BME280;67762;52.476;6.046;2023-03-01T04:32:33;103098.34;;;-5.60;77.96
43820;BME280;67762;52.476;6.046;2023-03-01T04:34:59;103095.75;;;-5.59;77.78
43820;BME280;67762;52.476;6.046;2023-03-01T04:37:25;103097.47;;;-5.58;78.11
43820;BME280;67762;52.476;6.046;2023-03-01T04:39:51;103087.06;;;-5.53;78.01
43820;BME280;67762;52.476;6.046;2023-03-01T04:42:17;103092.22;;;-5.46;77.88
43820;BME280;67762;52.476;6.046;2023-03-01T04:44:43;103083.47;;;-5.34;77.91
43820;BME280;67762;52.476;6.046;2023-03-01T04:47:09;103089.50;;;-5.26;77.91
43820;BME280;67762;52.476;6.046;2023-03-01T04:49:35;103081.69;;;-5.23;77.79
43820;BME280;67762;52.476;6.046;2023-03-01T04:52:01;103078.16;;;-5.19;77.95
43820;BME280;67762;52.476;6.046;2023-03-01T04:54:30;103076.44;;;-5.15;77.72
43820;BME280;67762;52.476;6.046;2023-03-01T04:56:56;103066.88;;;-5.12;77.68
43820;BME280;67762;52.476;6.046;2023-03-01T04:59:21;103062.50;;;-5.05;78.00
43820;BME280;67762;52.476;6.046;2023-03-01T05:01:49;103058.19;;;-5.12;77.93
43820;BME280;67762;52.476;6.046;2023-03-01T05:04:14;103053.03;;;-5.18;77.66
43820;BME280;67762;52.476;6.046;2023-03-01T05:06:40;103048.72;;;-5.19;77.99
43820;BME280;67762;52.476;6.046;2023-03-01T05:09:06;103046.97;;;-5.20;78.20
43820;BME280;67762;52.476;6.046;2023-03-01T05:11:31;103047.81;;;-5.21;78.13
43820;BME280;67762;52.476;6.046;2023-03-01T05:14:02;103044.38;;;-5.20;78.13
43820;BME280;67762;52.476;6.046;2023-03-01T05:16:28;103044.31;;;-5.16;78.36
43820;BME280;67762;52.476;6.046;2023-03-01T05:18:56;103042.50;;;-5.05;78.31
43820;BME280;67762;52.476;6.046;2023-03-01T05:21:22;103046.78;;;-4.92;78.07
43820;BME280;67762;52.476;6.046;2023-03-01T05:23:48;103042.34;;;-4.85;78.30
43820;BME280;67762;52.476;6.046;2023-03-01T05:26:14;103042.41;;;-4.91;78.05
43820;BME280;67762;52.476;6.046;2023-03-01T05:28:40;103039.88;;;-5.02;78.38
43820;BME280;67762;52.476;6.046;2023-03-01T05:31:06;103042.56;;;-5.11;78.50
43820;BME280;67762;52.476;6.046;2023-03-01T05:33:41;103027.84;;;-5.15;78.31
43820;BME280;67762;52.476;6.046;2023-03-01T05:36:08;103034.72;;;-5.06;78.30
43820;BME280;67762;52.476;6.046;2023-03-01T05:38:35;103027.75;;;-5.00;78.31
43820;BME280;67762;52.476;6.046;2023-03-01T05:41:01;103032.94;;;-5.01;78.30
43820;BME280;67762;52.476;6.046;2023-03-01T05:43:30;103036.47;;;-5.05;78.75
43820;BME280;67762;52.476;6.046;2023-03-01T05:45:57;103026.09;;;-5.11;78.65
43820;BME280;67762;52.476;6.046;2023-03-01T05:48:23;103027.00;;;-5.18;78.65
43820;BME280;67762;52.476;6.046;2023-03-01T05:50:48;103018.38;;;-5.26;78.34
43820;BME280;67762;52.476;6.046;2023-03-01T05:53:19;103016.72;;;-5.37;78.47
43820;BME280;67762;52.476;6.046;2023-03-01T05:55:46;103007.19;;;-5.39;78.59
43820;BME280;67762;52.476;6.046;2023-03-01T05:58:15;103011.59;;;-5.52;78.38
43820;BME280;67762;52.476;6.046;2023-03-01T06:00:43;103013.44;;;-5.67;78.35
43820;BME280;67762;52.476;6.046;2023-03-01T06:03:11;103018.72;;;-5.81;78.73
43820;BME280;67762;52.476;6.046;2023-03-01T06:05:38;103017.03;;;-5.94;78.55
43820;BME280;67762;52.476;6.046;2023-03-01T06:08:04;103013.63;;;-6.02;78.52
43820;BME280;67762;52.476;6.046;2023-03-01T06:10:30;103015.34;;;-6.01;78.57
43820;BME280;67762;52.476;6.046;2023-03-01T06:12:56;103012.78;;;-6.07;78.71
43820;BME280;67762;52.476;6.046;2023-03-01T06:15:23;103018.88;;;-6.11;78.66
43820;BME280;67762;52.476;6.046;2023-03-01T06:17:49;103020.56;;;-6.03;78.75
43820;BME280;67762;52.476;6.046;2023-03-01T06:20:18;103011.88;;;-6.02;78.78
43820;BME280;67762;52.476;6.046;2023-03-01T06:22:44;103021.41;;;-6.05;78.93
43820;BME280;67762;52.476;6.046;2023-03-01T06:25:11;103005.88;;;-6.14;78.88
43820;BME280;67762;52.476;6.046;2023-03-01T06:27:38;103010.25;;;-6.22;78.87
43820;BME280;67762;52.476;6.046;2023-03-01T06:30:04;103012.81;;;-6.15;78.74
43820;BME280;67762;52.476;6.046;2023-03-01T06:32:30;103018.81;;;-5.99;78.96
43820;BME280;67762;52.476;6.046;2023-03-01T06:34:57;103016.22;;;-5.98;78.81
43820;BME280;67762;52.476;6.046;2023-03-01T06:37:25;103021.41;;;-6.02;78.61
43820;BME280;67762;52.476;6.046;2023-03-01T06:39:50;103018.81;;;-6.05;78.71
43820;BME280;67762;52.476;6.046;2023-03-01T06:42:16;103021.41;;;-6.05;78.70
43820;BME280;67762;52.476;6.046;2023-03-01T06:44:42;103026.56;;;-5.90;78.75
43820;BME280;67762;52.476;6.046;2023-03-01T06:47:07;103017.81;;;-5.80;78.87
43820;BME280;67762;52.476;6.046;2023-03-01T06:49:33;103026.47;;;-5.73;78.75
43820;BME280;67762;52.476;6.046;2023-03-01T06:51:58;103029.00;;;-5.60;79.15
43820;BME280;67762;52.476;6.046;2023-03-01T06:54:24;103036.56;;;-5.23;79.00
43820;BME280;67762;52.476;6.046;2023-03-01T06:56:50;103028.63;;;-5.04;79.48
43820;BME280;67762;52.476;6.046;2023-03-01T06:59:16;103044.06;;;-4.78;79.62
43820;BME280;67762;52.476;6.046;2023-03-01T07:01:42;103037.66;;;-4.45;79.79
43820;BME280;67762;52.476;6.046;2023-03-01T07:04:09;103040.75;;;-4.10;80.14
43820;BME280;67762;52.476;6.046;2023-03-01T07:06:35;103040.31;;;-3.72;80.11
43820;BME280;67762;52.476;6.046;2023-03-01T07:09:00;103048.59;;;-3.43;80.37
43820;BME280;67762;52.476;6.046;2023-03-01T07:11:26;103043.97;;;-3.23;80.89
43820;BME280;67762;52.476;6.046;2023-03-01T07:13:52;103037.50;;;-2.99;80.69
43820;BME280;67762;52.476;6.046;2023-03-01T07:16:17;103040.56;;;-2.74;80.91
43820;BME280;67762;52.476;6.046;2023-03-01T07:18:43;103038.44;;;-2.51;80.97
43820;BME280;67762;52.476;6.046;2023-03-01T07:21:11;103043.16;;;-2.22;81.70
43820;BME280;67762;52.476;6.046;2023-03-01T07:23:37;103048.66;;;-1.92;81.27
43820;BME280;67762;52.476;6.046;2023-03-01T07:26:03;103044.59;;;-1.65;81.49
43820;BME280;67762;52.476;6.046;2023-03-01T07:28:29;103051.91;;;-1.39;81.67
43820;BME280;67762;52.476;6.046;2023-03-01T07:31:01;103050.59;;;-1.20;81.77
43820;BME280;67762;52.476;6.046;2023-03-01T07:33:26;103052.78;;;-1.02;81.88
43820;BME280;67762;52.476;6.046;2023-03-01T07:36:00;103048.63;;;-0.75;81.51
43820;BME280;67762;52.476;6.046;2023-03-01T07:38:26;103051.44;;;-0.49;81.83
43820;BME280;67762;52.476;6.046;2023-03-01T07:40:53;103055.44;;;-0.34;81.82
43820;BME280;67762;52.476;6.046;2023-03-01T07:43:19;103054.78;;;-0.10;81.74
43820;BME280;67762;52.476;6.046;2023-03-01T07:45:46;103058.78;;;0.34;81.67
43820;BME280;67762;52.476;6.046;2023-03-01T07:48:11;103048.84;;;0.73;81.75
43820;BME280;67762;52.476;6.046;2023-03-01T07:50:37;103057.34;;;1.08;81.65
43820;BME280;67762;52.476;6.046;2023-03-01T07:53:03;103055.63;;;1.34;81.41
43820;BME280;67762;52.476;6.046;2023-03-01T07:55:29;103058.44;;;1.55;81.37
43820;BME280;67762;52.476;6.046;2023-03-01T07:57:54;103059.28;;;1.81;80.98
43820;BME280;67762;52.476;6.046;2023-03-01T08:00:20;103058.53;;;2.02;80.91
43820;BME280;67762;52.476;6.046;2023-03-01T08:02:46;103053.72;;;2.13;81.00
43820;BME280;67762;52.476;6.046;2023-03-01T08:05:11;103051.59;;;2.22;80.23
43820;BME280;67762;52.476;6.046;2023-03-01T08:07:37;103052.94;;;2.34;80.17
43820;BME280;67762;52.476;6.046;2023-03-01T08:10:03;103046.13;;;2.52;80.56
43820;BME280;67762;52.476;6.046;2023-03-01T08:12:29;103045.34;;;2.71;80.11
43820;BME280;67762;52.476;6.046;2023-03-01T08:14:55;103033.34;;;2.86;79.55
43820;BME280;67762;52.476;6.046;2023-03-01T08:17:22;103034.44;;;3.24;79.64
43820;BME280;67762;52.476;6.046;2023-03-01T08:19:48;103033.88;;;3.58;79.71
43820;BME280;67762;52.476;6.046;2023-03-01T08:22:13;103039.97;;;3.98;79.61
43820;BME280;67762;52.476;6.046;2023-03-01T08:24:39;103030.81;;;4.44;78.98
43820;BME280;67762;52.476;6.046;2023-03-01T08:27:05;103029.94;;;4.81;78.86
43820;BME280;67762;52.476;6.046;2023-03-01T08:29:32;103028.22;;;4.99;78.07
43820;BME280;67762;52.476;6.046;2023-03-01T08:31:58;103016.34;;;5.24;77.67
43820;BME280;67762;52.476;6.046;2023-03-01T08:34:23;103028.25;;;5.50;76.98
43820;BME280;67762;52.476;6.046;2023-03-01T08:36:49;103025.19;;;5.75;76.53
43820;BME280;67762;52.476;6.046;2023-03-01T08:39:18;103016.50;;;5.90;76.25
43820;BME280;67762;52.476;6.046;2023-03-01T08:41:45;103018.81;;;5.96;75.34
43820;BME280;67762;52.476;6.046;2023-03-01T08:44:13;103018.81;;;5.96;75.48
43820;BME280;67762;52.476;6.046;2023-03-01T08:46:43;103015.00;;;5.84;74.74
43820;BME280;67762;52.476;6.046;2023-03-01T08:49:14;103020.06;;;5.89;74.24
43820;BME280;67762;52.476;6.046;2023-03-01T08:51:41;103016.50;;;5.90;73.75
43820;BME280;67762;52.476;6.046;2023-03-01T08:54:11;103014.09;;;5.85;73.40
43820;BME280;67762;52.476;6.046;2023-03-01T08:56:37;103004.72;;;5.78;73.10
43820;BME280;67762;52.476;6.046;2023-03-01T08:59:03;103007.31;;;6.13;72.25
43820;BME280;67762;52.476;6.046;2023-03-01T09:01:29;103008.63;;;6.53;72.31
43820;BME280;67762;52.476;6.046;2023-03-01T09:03:55;103014.72;;;6.70;71.96
43820;BME280;67762;52.476;6.046;2023-03-01T09:06:20;103013.84;;;7.01;71.57
43820;BME280;67762;52.476;6.046;2023-03-01T09:08:50;103011.81;;;7.20;71.44
43820;BME280;67762;52.476;6.046;2023-03-01T09:11:19;103007.97;;;7.26;69.85
43820;BME280;67762;52.476;6.046;2023-03-01T09:13:47;103017.44;;;7.59;69.91
43820;BME280;67762;52.476;6.046;2023-03-01T09:16:15;103012.84;;;7.77;68.86
43820;BME280;67762;52.476;6.046;2023-03-01T09:18:43;103010.19;;;7.77;67.84
43820;BME280;67762;52.476;6.046;2023-03-01T09:21:13;103009.00;;;7.67;66.80
43820;BME280;67762;52.476;6.046;2023-03-01T09:23:41;103004.56;;;7.68;66.97
43820;BME280;67762;52.476;6.046;2023-03-01T09:26:08;103000.25;;;7.51;65.45
43820;BME280;67762;52.476;6.046;2023-03-01T09:28:35;102992.22;;;7.66;65.61
43820;BME280;67762;52.476;6.046;2023-03-01T09:31:02;102989.31;;;7.41;63.24
43820;BME280;67762;52.476;6.046;2023-03-01T09:33:29;102993.50;;;7.45;63.37
43820;BME280;67762;52.476;6.046;2023-03-01T09:36:04;102992.09;;;7.54;62.96
43820;BME280;67762;52.476;6.046;2023-03-01T09:38:30;102992.31;;;7.65;62.33
43820;BME280;67762;52.476;6.046;2023-03-01T09:40:56;102990.78;;;7.75;62.22
43820;BME280;67762;52.476;6.046;2023-03-01T09:43:29;102982.28;;;7.84;60.88
43820;BME280;67762;52.476;6.046;2023-03-01T09:46:04;102983.50;;;7.93;60.15
43820;BME280;67762;52.476;6.046;2023-03-01T09:48:41;102985.50;;;8.03;59.54
43820;BME280;67762;52.476;6.046;2023-03-01T09:51:13;102975.25;;;8.11;59.75
43820;BME280;67762;52.476;6.046;2023-03-01T09:53:41;102979.13;;;8.20;58.84
43820;BME280;67762;52.476;6.046;2023-03-01T09:56:30;102964.41;;;8.14;57.41
43820;BME280;67762;52.476;6.046;2023-03-01T09:59:21;102970.09;;;8.22;57.84
43820;BME280;67762;52.476;6.046;2023-03-01T10:07:32;102961.88;;;8.13;55.10
43820;BME280;67762;52.476;6.046;2023-03-01T10:10:05;102953.03;;;8.12;55.11
43820;BME280;67762;52.476;6.046;2023-03-01T10:12:39;102954.13;;;8.22;54.27
43820;BME280;67762;52.476;6.046;2023-03-01T10:17:45;102953.09;;;8.25;54.13
43820;BME280;67762;52.476;6.046;2023-03-01T10:22:50;102958.97;;;8.44;53.62
43820;BME280;67762;52.476;6.046;2023-03-01T10:28:17;102957.59;;;8.92;52.76
43820;BME280;67762;52.476;6.046;2023-03-01T10:30:45;102950.66;;;8.90;53.07
43820;BME280;67762;52.476;6.046;2023-03-01T10:33:16;102957.03;;;8.87;52.33
43820;BME280;67762;52.476;6.046;2023-03-01T10:35:42;102950.06;;;8.72;50.83
43820;BME280;67762;52.476;6.046;2023-03-01T10:38:11;102941.88;;;8.48;51.09
43820;BME280;67762;52.476;6.046;2023-03-01T10:40:59;102938.72;;;8.56;50.51
43820;BME280;67762;52.476;6.046;2023-03-01T10:43:39;102938.50;;;8.59;49.94
43820;BME280;67762;52.476;6.046;2023-03-01T10:46:35;102931.13;;;8.50;49.39
43820;BME280;67762;52.476;6.046;2023-03-01T10:49:21;102935.13;;;8.43;49.15
43820;BME280;67762;52.476;6.046;2023-03-01T10:51:49;102927.75;;;8.19;47.74
43820;BME280;67762;52.476;6.046;2023-03-01T10:56:51;102926.50;;;8.39;48.29
43820;BME280;67762;52.476;6.046;2023-03-01T10:59:38;102924.34;;;8.32;47.65
43820;BME280;67762;52.476;6.046;2023-03-01T11:02:27;102926.81;;;8.35;48.04
43820;BME280;67762;52.476;6.046;2023-03-01T11:05:13;102920.78;;;8.45;47.58
43820;BME280;67762;52.476;6.046;2023-03-01T11:07:53;102913.25;;;8.52;47.52
43820;BME280;67762;52.476;6.046;2023-03-01T11:10:22;102909.22;;;8.59;46.93
43820;BME280;67762;52.476;6.046;2023-03-01T11:12:48;102904.25;;;8.67;47.50
43820;BME280;67762;52.476;6.046;2023-03-01T11:15:25;102901.19;;;8.73;47.43
43820;BME280;67762;52.476;6.046;2023-03-01T11:17:52;102901.34;;;8.84;48.06
43820;BME280;67762;52.476;6.046;2023-03-01T11:20:26;102885.22;;;8.73;47.99
43820;BME280;67762;52.476;6.046;2023-03-01T11:23:01;102900.75;;;8.66;47.48
43820;BME280;67762;52.476;6.046;2023-03-01T11:25:40;102883.28;;;8.62;47.46
43820;BME280;67762;52.476;6.046;2023-03-01T11:28:12;102886.16;;;8.72;47.86
43820;BME280;67762;52.476;6.046;2023-03-01T11:30:50;102894.72;;;8.77;47.04
43820;BME280;67762;52.476;6.046;2023-03-01T11:36:16;102896.72;;;8.73;46.17
43820;BME280;67762;52.476;6.046;2023-03-01T11:38:42;102891.44;;;8.86;46.36
43820;BME280;67762;52.476;6.046;2023-03-01T11:41:20;102890.47;;;8.87;46.12
43820;BME280;67762;52.476;6.046;2023-03-01T11:44:01;102890.34;;;8.76;45.80
43820;BME280;67762;52.476;6.046;2023-03-01T11:54:54;102871.25;;;8.96;45.58
43820;BME280;67762;52.476;6.046;2023-03-01T12:00:48;102880.63;;;9.02;45.77
43820;BME280;67762;52.476;6.046;2023-03-01T12:09:05;102869.88;;;8.64;45.37
43820;BME280;67762;52.476;6.046;2023-03-01T12:20:26;102854.63;;;8.53;45.09
43820;BME280;67762;52.476;6.046;2023-03-01T12:26:19;102847.75;;;8.63;44.64
43820;BME280;67762;52.476;6.046;2023-03-01T12:40:09;102836.25;;;8.75;44.17
43820;BME280;67762;52.476;6.046;2023-03-01T12:50:57;102823.19;;;8.85;44.36
43820;BME280;67762;52.476;6.046;2023-03-01T12:53:32;102816.25;;;8.95;44.39
43820;BME280;67762;52.476;6.046;2023-03-01T12:56:02;102803.91;;;8.94;44.44
43820;BME280;67762;52.476;6.046;2023-03-01T13:01:21;102784.00;;;8.87;44.34
43820;BME280;67762;52.476;6.046;2023-03-01T13:15:37;102787.88;;;9.57;44.54
43820;BME280;67762;52.476;6.046;2023-03-01T13:26:10;102780.75;;;9.45;43.40
43820;BME280;67762;52.476;6.046;2023-03-01T13:28:54;102773.19;;;9.52;43.25
43820;BME280;67762;52.476;6.046;2023-03-01T13:49:42;102737.25;;;9.57;42.67
43820;BME280;67762;52.476;6.046;2023-03-01T13:54:50;102734.59;;;9.57;42.44
43820;BME280;67762;52.476;6.046;2023-03-01T13:57:22;102742.22;;;9.62;42.66
43820;BME280;67762;52.476;6.046;2023-03-01T13:59:50;102733.50;;;9.60;42.75
43820;BME280;67762;52.476;6.046;2023-03-01T14:02:16;102731.16;;;9.55;42.56
43820;BME280;67762;52.476;6.046;2023-03-01T14:04:42;102729.06;;;9.48;42.28
43820;BME280;67762;52.476;6.046;2023-03-01T14:07:19;102709.09;;;9.53;42.30
43820;BME280;67762;52.476;6.046;2023-03-01T14:09:50;102712.44;;;9.44;42.28
43820;BME280;67762;52.476;6.046;2023-03-01T14:17:44;102710.41;;;9.48;42.31
43820;BME280;67762;52.476;6.046;2023-03-01T14:20:21;102702.97;;;9.64;42.54
43820;BME280;67762;52.476;6.046;2023-03-01T14:22:51;102699.22;;;9.66;42.29
43820;BME280;67762;52.476;6.046;2023-03-01T14:25:28;102700.22;;;9.65;41.99
43820;BME280;67762;52.476;6.046;2023-03-01T14:31:03;102689.50;;;9.54;41.81
43820;BME280;67762;52.476;6.046;2023-03-01T14:33:31;102680.66;;;9.54;41.87
43820;BME280;67762;52.476;6.046;2023-03-01T14:36:11;102687.22;;;9.61;41.88
43820;BME280;67762;52.476;6.046;2023-03-01T14:38:45;102668.34;;;9.64;41.78
43820;BME280;67762;52.476;6.046;2023-03-01T14:41:20;102673.34;;;9.68;41.97
43820;BME280;67762;52.476;6.046;2023-03-01T14:43:57;102664.63;;;9.77;41.90
43820;BME280;67762;52.476;6.046;2023-03-01T14:46:37;102663.38;;;9.94;42.28
43820;BME280;67762;52.476;6.046;2023-03-01T14:51:40;102661.72;;;10.04;42.64
43820;BME280;67762;52.476;6.046;2023-03-01T14:54:27;102654.94;;;10.11;42.37
43820;BME280;67762;52.476;6.046;2023-03-01T14:56:58;102649.44;;;9.90;41.67
43820;BME280;67762;52.476;6.046;2023-03-01T14:59:25;102652.38;;;9.75;41.89
43820;BME280;67762;52.476;6.046;2023-03-01T15:01:54;102646.09;;;9.76;41.89
43820;BME280;67762;52.476;6.046;2023-03-01T15:04:21;102648.84;;;9.63;41.37
43820;BME280;67762;52.476;6.046;2023-03-01T15:06:50;102647.00;;;9.64;41.70
43820;BME280;67762;52.476;6.046;2023-03-01T15:09:17;102635.16;;;9.68;41.43
43820;BME280;67762;52.476;6.046;2023-03-01T15:11:43;102635.78;;;9.71;41.59
43820;BME280;67762;52.476;6.046;2023-03-01T15:14:48;102631.53;;;9.69;41.88
43820;BME280;67762;52.476;6.046;2023-03-01T15:17:28;102619.81;;;9.71;42.20
43820;BME280;67762;52.476;6.046;2023-03-01T15:19:56;102621.63;;;9.71;42.33
43820;BME280;67762;52.476;6.046;2023-03-01T15:22:23;102614.28;;;9.62;41.62
43820;BME280;67762;52.476;6.046;2023-03-01T15:24:50;102616.47;;;9.57;41.55
43820;BME280;67762;52.476;6.046;2023-03-01T15:27:19;102606.16;;;9.52;41.26
43820;BME280;67762;52.476;6.046;2023-03-01T15:30:02;102611.97;;;9.57;41.38
43820;BME280;67762;52.476;6.046;2023-03-01T15:32:34;102609.03;;;9.49;41.76
43820;BME280;67762;52.476;6.046;2023-03-01T15:41:37;102617.25;;;9.46;42.38
43820;BME280;67762;52.476;6.046;2023-03-01T15:44:26;102624.34;;;9.34;42.77
43820;BME280;67762;52.476;6.046;2023-03-01T15:46:52;102624.13;;;9.37;42.72
43820;BME280;67762;52.476;6.046;2023-03-01T15:49:42;102625.13;;;9.48;42.98
43820;BME280;67762;52.476;6.046;2023-03-01T15:52:25;102614.91;;;9.41;42.29
43820;BME280;67762;52.476;6.046;2023-03-01T15:54:56;102619.97;;;9.33;41.84
43820;BME280;67762;52.476;6.046;2023-03-01T15:57:22;102628.09;;;9.32;42.21
43820;BME280;67762;52.476;6.046;2023-03-01T15:59:48;102620.94;;;9.32;42.56
43820;BME280;67762;52.476;6.046;2023-03-01T16:02:14;102622.19;;;9.16;42.35
43820;BME280;67762;52.476;6.046;2023-03-01T16:04:40;102613.25;;;9.04;42.04
43820;BME280;67762;52.476;6.046;2023-03-01T16:07:05;102612.75;;;8.99;42.44
43820;BME280;67762;52.476;6.046;2023-03-01T16:09:31;102607.94;;;8.92;42.06
43820;BME280;67762;52.476;6.046;2023-03-01T16:11:57;102613.63;;;8.87;42.26
43820;BME280;67762;52.476;6.046;2023-03-01T16:14:23;102600.09;;;8.77;41.48
43820;BME280;67762;52.476;6.046;2023-03-01T16:16:48;102600.44;;;8.73;42.05
43820;BME280;67762;52.476;6.046;2023-03-01T16:19:15;102605.25;;;8.68;41.76
43820;BME280;67762;52.476;6.046;2023-03-01T16:21:41;102611.50;;;8.67;42.27
43820;BME280;67762;52.476;6.046;2023-03-01T16:24:08;102606.94;;;8.69;42.47
43820;BME280;67762;52.476;6.046;2023-03-01T16:26:36;102602.78;;;8.65;42.39
43820;BME280;67762;52.476;6.046;2023-03-01T16:29:03;102601.75;;;8.55;42.59
43820;BME280;67762;52.476;6.046;2023-03-01T16:31:29;102607.72;;;8.46;42.83
43820;BME280;67762;52.476;6.046;2023-03-01T16:33:55;102604.59;;;8.39;42.41
43820;BME280;67762;52.476;6.046;2023-03-01T16:36:23;102600.03;;;8.29;43.71
43820;BME280;67762;52.476;6.046;2023-03-01T16:38:50;102592.66;;;8.19;43.73